Aérodrome :
LOGIN :

S'inscrire | Disclaimer

   EN    FR    IT 

 










Légende :    VFR   VFR Marginal   IFR   IFR Intensif   IFR Très Intensif
Visi : 
Plafond : 
>= 8 km
>= 3000ft
5 à 8 km
1000 à 3000 ft
1500m à 5 km
500 à 1000 ft
800 à 1500m
200 à 500 ft
< 800m
< 200 ft
Symboles :   Orages  Brouillard  Fortes neiges  Fortes précipitations  Vent > 20 kt
SIGMETs :   Divers  Orages  Givrage  Turbulence  Onde Orograph.  Cendres Volcan.






- Altitude de l'aérodrome : 397 ft
- Code IATA : IAS


LRIA - Iasi

DERNIER METAR :
  • 191500Z 08005KT 9999 OVC025 02/M03 Q1031 R14/19//95

METARs EXPIRÉS :
  • 191430Z 09004KT 9999 OVC025 02/M03 Q1031 R14/19//95
  • 191400Z 09006KT 9999 OVC025 02/M03 Q1030 R14/19//95
  • 191330Z 11006KT 9999 OVC024 02/M03 Q1030 R14/19//95
  • 191300Z 11008KT 9999 OVC024 02/M03 Q1029 R14/19//95
  • 191230Z 11007KT 9999 OVC024 02/M02 Q1029 R14/19//95

TAF TAF LRIA
Valide du 19 à 15h jusqu'au 20 à 00h UTC


191400Z 1915/1924 10008KT 9999 OVC020
TEMPO 1919/1924 5000 BR BKN010



MET'MAP, la Météo Aéronautique d'un coup d'oeil ! - Copyright ORBIFLY Décembre 2007 - Disclaimer

ORBIFLY MET'MAP TEAM :

Programmation & Développement : Alexandra Zaïnal
Sur une idée originale de : Baudouin d'Aumeries
Assistance à la programmation : Marc-Olivier Méhu
Soutien technique & logistique : Manuel Goepfert

Contact : metmap@orbifly.com




SOURCES & CREDITS :

   NOAA